Terminal Aerodrome Forecast
Issued by NWS Charleston, WV

Home | Current Version | Previous Version | Text Only | Print | Product List | Glossary On
Versions: 1 2 3 4 5 6 7 8 9 10 11 12 13 14 15 16 17 18 19 20 21 22 23 24 25
000
FTUS41 KRLX 011700
TAFHTS
TAF
KHTS 011721Z 0118/0218 16006KT P6SM BKN110
     FM012200 19010G17KT 6SM -RA BR BKN050
     FM020600 23008KT 3SM -RA BR OVC015
     FM021300 27013G22KT 2SM -SN OVC008
     FM021600 28013G22KT 6SM -SHSN OVC020=

USA.gov is the U.S. government's official web portal to all federal, state and local government web resources and services.